sensor_id;sensor_type;location;lat;lon;timestamp;P1;durP1;ratioP1;P2;durP2;ratioP2
48268;SDS011;34088;52.232;5.196;2022-08-03T00:00:12;6.22;;;1.75;;
48268;SDS011;34088;52.232;5.196;2022-08-03T00:02:39;8.55;;;2.15;;
48268;SDS011;34088;52.232;5.196;2022-08-03T00:05:05;6.65;;;1.90;;
48268;SDS011;34088;52.232;5.196;2022-08-03T00:07:32;7.30;;;1.92;;
48268;SDS011;34088;52.232;5.196;2022-08-03T00:09:58;7.53;;;2.00;;
48268;SDS011;34088;52.232;5.196;2022-08-03T00:12:24;7.70;;;1.80;;
48268;SDS011;34088;52.232;5.196;2022-08-03T00:14:51;7.80;;;1.83;;
48268;SDS011;34088;52.232;5.196;2022-08-03T00:17:17;6.20;;;2.00;;
48268;SDS011;34088;52.232;5.196;2022-08-03T00:19:43;9.73;;;1.85;;
48268;SDS011;34088;52.232;5.196;2022-08-03T00:22:09;11.48;;;2.30;;
48268;SDS011;34088;52.232;5.196;2022-08-03T00:24:35;7.32;;;2.00;;
48268;SDS011;34088;52.232;5.196;2022-08-03T00:27:01;10.95;;;2.08;;
48268;SDS011;34088;52.232;5.196;2022-08-03T00:29:27;8.30;;;2.28;;
48268;SDS011;34088;52.232;5.196;2022-08-03T00:31:53;7.30;;;1.80;;
48268;SDS011;34088;52.232;5.196;2022-08-03T00:34:19;9.35;;;2.03;;
48268;SDS011;34088;52.232;5.196;2022-08-03T00:36:45;9.23;;;2.22;;
48268;SDS011;34088;52.232;5.196;2022-08-03T00:39:11;7.25;;;2.10;;
48268;SDS011;34088;52.232;5.196;2022-08-03T00:41:37;7.60;;;1.73;;
48268;SDS011;34088;52.232;5.196;2022-08-03T00:44:03;6.97;;;2.10;;
48268;SDS011;34088;52.232;5.196;2022-08-03T00:46:29;11.18;;;2.50;;
48268;SDS011;34088;52.232;5.196;2022-08-03T00:48:55;11.90;;;2.10;;
48268;SDS011;34088;52.232;5.196;2022-08-03T00:51:21;11.55;;;2.35;;
48268;SDS011;34088;52.232;5.196;2022-08-03T00:53:48;9.70;;;2.15;;
48268;SDS011;34088;52.232;5.196;2022-08-03T00:56:14;14.55;;;2.35;;
48268;SDS011;34088;52.232;5.196;2022-08-03T00:58:42;9.55;;;2.28;;
48268;SDS011;34088;52.232;5.196;2022-08-03T01:01:09;10.25;;;2.17;;
48268;SDS011;34088;52.232;5.196;2022-08-03T01:03:36;10.63;;;2.10;;
48268;SDS011;34088;52.232;5.196;2022-08-03T01:06:15;6.40;;;1.98;;
48268;SDS011;34088;52.232;5.196;2022-08-03T01:09:10;9.15;;;2.10;;
48268;SDS011;34088;52.232;5.196;2022-08-03T01:11:45;9.48;;;2.15;;
48268;SDS011;34088;52.232;5.196;2022-08-03T01:14:23;8.07;;;2.05;;
48268;SDS011;34088;52.232;5.196;2022-08-03T01:17:11;13.13;;;2.47;;
48268;SDS011;34088;52.232;5.196;2022-08-03T01:19:58;13.18;;;2.72;;
48268;SDS011;34088;52.232;5.196;2022-08-03T01:30:29;9.75;;;2.05;;
48268;SDS011;34088;52.232;5.196;2022-08-03T01:33:04;9.27;;;2.33;;
48268;SDS011;34088;52.232;5.196;2022-08-03T01:38:06;8.55;;;2.47;;
48268;SDS011;34088;52.232;5.196;2022-08-03T01:40:36;10.13;;;2.08;;
48268;SDS011;34088;52.232;5.196;2022-08-03T01:43:03;8.95;;;2.20;;
48268;SDS011;34088;52.232;5.196;2022-08-03T01:45:31;8.20;;;2.22;;
48268;SDS011;34088;52.232;5.196;2022-08-03T01:47:58;9.20;;;2.30;;
48268;SDS011;34088;52.232;5.196;2022-08-03T01:50:26;10.52;;;2.53;;
48268;SDS011;34088;52.232;5.196;2022-08-03T01:52:54;8.45;;;2.33;;
48268;SDS011;34088;52.232;5.196;2022-08-03T01:55:21;10.20;;;2.60;;
48268;SDS011;34088;52.232;5.196;2022-08-03T01:57:48;6.43;;;2.00;;
48268;SDS011;34088;52.232;5.196;2022-08-03T02:00:16;12.82;;;2.53;;
48268;SDS011;34088;52.232;5.196;2022-08-03T02:02:43;4.95;;;2.00;;
48268;SDS011;34088;52.232;5.196;2022-08-03T02:05:11;8.80;;;2.83;;
48268;SDS011;34088;52.232;5.196;2022-08-03T02:07:38;9.43;;;2.65;;
48268;SDS011;34088;52.232;5.196;2022-08-03T02:10:06;14.07;;;3.08;;
48268;SDS011;34088;52.232;5.196;2022-08-03T02:12:32;9.43;;;2.80;;
48268;SDS011;34088;52.232;5.196;2022-08-03T02:14:59;13.43;;;2.80;;
48268;SDS011;34088;52.232;5.196;2022-08-03T02:17:26;10.63;;;2.50;;
48268;SDS011;34088;52.232;5.196;2022-08-03T02:19:52;12.50;;;3.00;;
48268;SDS011;34088;52.232;5.196;2022-08-03T02:22:20;10.20;;;2.53;;
48268;SDS011;34088;52.232;5.196;2022-08-03T02:24:48;9.10;;;2.60;;
48268;SDS011;34088;52.232;5.196;2022-08-03T02:27:21;7.18;;;2.47;;
48268;SDS011;34088;52.232;5.196;2022-08-03T02:29:50;10.88;;;2.75;;
48268;SDS011;34088;52.232;5.196;2022-08-03T02:32:20;12.73;;;2.97;;
48268;SDS011;34088;52.232;5.196;2022-08-03T02:34:51;13.88;;;2.92;;
48268;SDS011;34088;52.232;5.196;2022-08-03T02:37:18;9.75;;;2.53;;
48268;SDS011;34088;52.232;5.196;2022-08-03T02:39:44;13.85;;;3.10;;
48268;SDS011;34088;52.232;5.196;2022-08-03T02:42:11;10.88;;;2.78;;
48268;SDS011;34088;52.232;5.196;2022-08-03T02:44:39;11.35;;;3.00;;
48268;SDS011;34088;52.232;5.196;2022-08-03T02:47:08;10.35;;;2.65;;
48268;SDS011;34088;52.232;5.196;2022-08-03T02:49:36;11.05;;;3.17;;
48268;SDS011;34088;52.232;5.196;2022-08-03T02:52:03;11.55;;;3.20;;
48268;SDS011;34088;52.232;5.196;2022-08-03T02:54:29;11.98;;;2.97;;
48268;SDS011;34088;52.232;5.196;2022-08-03T02:56:56;11.65;;;3.33;;
48268;SDS011;34088;52.232;5.196;2022-08-03T02:59:23;10.15;;;3.15;;
48268;SDS011;34088;52.232;5.196;2022-08-03T03:01:50;11.13;;;2.83;;
48268;SDS011;34088;52.232;5.196;2022-08-03T03:04:17;13.10;;;3.42;;
48268;SDS011;34088;52.232;5.196;2022-08-03T03:06:44;11.38;;;2.88;;
48268;SDS011;34088;52.232;5.196;2022-08-03T03:09:10;15.10;;;3.10;;
48268;SDS011;34088;52.232;5.196;2022-08-03T03:11:37;14.18;;;3.40;;
48268;SDS011;34088;52.232;5.196;2022-08-03T03:14:03;11.48;;;3.00;;
48268;SDS011;34088;52.232;5.196;2022-08-03T03:16:30;9.93;;;3.10;;
48268;SDS011;34088;52.232;5.196;2022-08-03T03:18:57;14.75;;;3.10;;
48268;SDS011;34088;52.232;5.196;2022-08-03T03:21:24;11.90;;;2.90;;
48268;SDS011;34088;52.232;5.196;2022-08-03T03:23:51;14.00;;;3.20;;
48268;SDS011;34088;52.232;5.196;2022-08-03T03:26:17;15.52;;;3.13;;
48268;SDS011;34088;52.232;5.196;2022-08-03T03:28:43;13.95;;;3.17;;
48268;SDS011;34088;52.232;5.196;2022-08-03T03:31:10;12.85;;;2.90;;
48268;SDS011;34088;52.232;5.196;2022-08-03T03:33:36;12.48;;;3.03;;
48268;SDS011;34088;52.232;5.196;2022-08-03T03:36:03;12.90;;;3.15;;
48268;SDS011;34088;52.232;5.196;2022-08-03T03:38:30;12.23;;;3.40;;
48268;SDS011;34088;52.232;5.196;2022-08-03T03:40:57;14.23;;;3.33;;
48268;SDS011;34088;52.232;5.196;2022-08-03T03:43:23;13.55;;;3.63;;
48268;SDS011;34088;52.232;5.196;2022-08-03T03:45:50;13.60;;;2.92;;
48268;SDS011;34088;52.232;5.196;2022-08-03T03:48:17;13.32;;;3.75;;
48268;SDS011;34088;52.232;5.196;2022-08-03T03:50:44;14.70;;;3.90;;
48268;SDS011;34088;52.232;5.196;2022-08-03T03:53:11;15.38;;;3.75;;
48268;SDS011;34088;52.232;5.196;2022-08-03T03:55:38;11.07;;;3.20;;
48268;SDS011;34088;52.232;5.196;2022-08-03T03:58:04;12.45;;;3.42;;
48268;SDS011;34088;52.232;5.196;2022-08-03T04:00:31;15.23;;;3.72;;
48268;SDS011;34088;52.232;5.196;2022-08-03T04:02:57;13.57;;;3.50;;
48268;SDS011;34088;52.232;5.196;2022-08-03T04:05:23;12.48;;;3.58;;
48268;SDS011;34088;52.232;5.196;2022-08-03T04:08:09;13.15;;;3.35;;
48268;SDS011;34088;52.232;5.196;2022-08-03T04:11:08;13.95;;;3.53;;
48268;SDS011;34088;52.232;5.196;2022-08-03T04:16:14;18.00;;;3.70;;
48268;SDS011;34088;52.232;5.196;2022-08-03T04:18:43;10.77;;;3.55;;
48268;SDS011;34088;52.232;5.196;2022-08-03T04:21:12;15.90;;;3.80;;
48268;SDS011;34088;52.232;5.196;2022-08-03T04:23:40;13.90;;;3.55;;
48268;SDS011;34088;52.232;5.196;2022-08-03T04:26:09;12.55;;;3.47;;
48268;SDS011;34088;52.232;5.196;2022-08-03T04:28:38;16.55;;;3.58;;
48268;SDS011;34088;52.232;5.196;2022-08-03T04:31:06;10.07;;;3.85;;
48268;SDS011;34088;52.232;5.196;2022-08-03T04:33:33;18.35;;;4.00;;
48268;SDS011;34088;52.232;5.196;2022-08-03T04:36:02;13.18;;;3.35;;
48268;SDS011;34088;52.232;5.196;2022-08-03T04:38:30;12.38;;;3.75;;
48268;SDS011;34088;52.232;5.196;2022-08-03T04:41:01;13.27;;;3.88;;
48268;SDS011;34088;52.232;5.196;2022-08-03T04:43:27;17.83;;;4.03;;
48268;SDS011;34088;52.232;5.196;2022-08-03T04:45:54;10.63;;;3.25;;
48268;SDS011;34088;52.232;5.196;2022-08-03T04:48:20;14.77;;;3.83;;
48268;SDS011;34088;52.232;5.196;2022-08-03T04:50:46;12.57;;;3.67;;
48268;SDS011;34088;52.232;5.196;2022-08-03T04:53:13;13.80;;;3.50;;
48268;SDS011;34088;52.232;5.196;2022-08-03T04:55:39;15.10;;;3.88;;
48268;SDS011;34088;52.232;5.196;2022-08-03T04:58:05;18.83;;;4.45;;
48268;SDS011;34088;52.232;5.196;2022-08-03T05:00:31;16.30;;;4.50;;
48268;SDS011;34088;52.232;5.196;2022-08-03T05:02:57;14.38;;;3.58;;
48268;SDS011;34088;52.232;5.196;2022-08-03T05:05:23;16.20;;;3.88;;
48268;SDS011;34088;52.232;5.196;2022-08-03T05:07:49;15.73;;;3.50;;
48268;SDS011;34088;52.232;5.196;2022-08-03T05:10:16;15.98;;;3.88;;
48268;SDS011;34088;52.232;5.196;2022-08-03T05:12:42;16.55;;;3.92;;
48268;SDS011;34088;52.232;5.196;2022-08-03T05:15:12;13.35;;;3.80;;
48268;SDS011;34088;52.232;5.196;2022-08-03T05:17:38;12.60;;;3.58;;
48268;SDS011;34088;52.232;5.196;2022-08-03T05:20:04;19.30;;;4.75;;
48268;SDS011;34088;52.232;5.196;2022-08-03T05:22:31;11.68;;;3.50;;
48268;SDS011;34088;52.232;5.196;2022-08-03T05:24:57;14.18;;;3.75;;
48268;SDS011;34088;52.232;5.196;2022-08-03T05:27:24;12.95;;;3.95;;
48268;SDS011;34088;52.232;5.196;2022-08-03T05:29:50;18.08;;;4.30;;
48268;SDS011;34088;52.232;5.196;2022-08-03T05:32:17;17.00;;;4.00;;
48268;SDS011;34088;52.232;5.196;2022-08-03T05:34:43;15.98;;;3.60;;
48268;SDS011;34088;52.232;5.196;2022-08-03T05:37:09;16.50;;;4.13;;
48268;SDS011;34088;52.232;5.196;2022-08-03T05:39:35;15.27;;;3.80;;
48268;SDS011;34088;52.232;5.196;2022-08-03T05:42:02;13.95;;;4.05;;
48268;SDS011;34088;52.232;5.196;2022-08-03T05:44:28;10.95;;;3.13;;
48268;SDS011;34088;52.232;5.196;2022-08-03T05:46:55;16.20;;;4.10;;
48268;SDS011;34088;52.232;5.196;2022-08-03T05:49:22;20.33;;;3.85;;
48268;SDS011;34088;52.232;5.196;2022-08-03T05:51:48;13.23;;;3.75;;
48268;SDS011;34088;52.232;5.196;2022-08-03T05:54:14;15.27;;;4.00;;
48268;SDS011;34088;52.232;5.196;2022-08-03T05:56:40;13.52;;;3.97;;
48268;SDS011;34088;52.232;5.196;2022-08-03T05:59:06;13.65;;;3.70;;
48268;SDS011;34088;52.232;5.196;2022-08-03T06:01:32;10.13;;;3.90;;
48268;SDS011;34088;52.232;5.196;2022-08-03T06:03:58;14.85;;;3.95;;
48268;SDS011;34088;52.232;5.196;2022-08-03T06:06:24;18.13;;;3.97;;
48268;SDS011;34088;52.232;5.196;2022-08-03T06:08:50;16.38;;;4.20;;
48268;SDS011;34088;52.232;5.196;2022-08-03T06:11:17;14.43;;;3.80;;
48268;SDS011;34088;52.232;5.196;2022-08-03T06:13:43;15.70;;;4.03;;
48268;SDS011;34088;52.232;5.196;2022-08-03T06:16:09;15.25;;;4.05;;
48268;SDS011;34088;52.232;5.196;2022-08-03T06:18:36;17.48;;;3.85;;
48268;SDS011;34088;52.232;5.196;2022-08-03T06:21:02;19.40;;;4.38;;
48268;SDS011;34088;52.232;5.196;2022-08-03T06:23:29;13.90;;;4.20;;
48268;SDS011;34088;52.232;5.196;2022-08-03T06:25:55;20.92;;;4.15;;
48268;SDS011;34088;52.232;5.196;2022-08-03T06:28:21;21.02;;;4.43;;
48268;SDS011;34088;52.232;5.196;2022-08-03T06:30:47;20.35;;;4.53;;
48268;SDS011;34088;52.232;5.196;2022-08-03T06:33:13;21.52;;;4.32;;
48268;SDS011;34088;52.232;5.196;2022-08-03T06:35:39;19.58;;;4.88;;
48268;SDS011;34088;52.232;5.196;2022-08-03T06:38:05;25.98;;;4.90;;
48268;SDS011;34088;52.232;5.196;2022-08-03T06:40:33;15.32;;;4.35;;
48268;SDS011;34088;52.232;5.196;2022-08-03T06:43:04;19.00;;;4.80;;
48268;SDS011;34088;52.232;5.196;2022-08-03T06:45:31;20.10;;;5.43;;
48268;SDS011;34088;52.232;5.196;2022-08-03T06:48:04;18.83;;;5.35;;
48268;SDS011;34088;52.232;5.196;2022-08-03T07:02:10;20.50;;;4.85;;
48268;SDS011;34088;52.232;5.196;2022-08-03T07:04:36;21.15;;;5.15;;
48268;SDS011;34088;52.232;5.196;2022-08-03T07:07:02;15.82;;;5.40;;
48268;SDS011;34088;52.232;5.196;2022-08-03T07:09:28;27.65;;;5.78;;
48268;SDS011;34088;52.232;5.196;2022-08-03T07:11:54;20.88;;;5.95;;
48268;SDS011;34088;52.232;5.196;2022-08-03T07:14:21;15.98;;;5.32;;
48268;SDS011;34088;52.232;5.196;2022-08-03T07:16:47;21.13;;;6.47;;
48268;SDS011;34088;52.232;5.196;2022-08-03T07:19:13;19.25;;;6.22;;
48268;SDS011;34088;52.232;5.196;2022-08-03T07:21:39;19.20;;;6.60;;
48268;SDS011;34088;52.232;5.196;2022-08-03T07:24:05;14.48;;;5.63;;
48268;SDS011;34088;52.232;5.196;2022-08-03T07:26:31;14.80;;;5.97;;
48268;SDS011;34088;52.232;5.196;2022-08-03T07:28:57;21.55;;;7.50;;
48268;SDS011;34088;52.232;5.196;2022-08-03T07:31:25;20.00;;;6.75;;
48268;SDS011;34088;52.232;5.196;2022-08-03T07:33:51;17.58;;;6.50;;
48268;SDS011;34088;52.232;5.196;2022-08-03T07:36:17;21.38;;;5.97;;
48268;SDS011;34088;52.232;5.196;2022-08-03T07:38:44;16.52;;;5.88;;
48268;SDS011;34088;52.232;5.196;2022-08-03T07:41:10;19.42;;;5.35;;
48268;SDS011;34088;52.232;5.196;2022-08-03T07:43:36;16.30;;;5.53;;
48268;SDS011;34088;52.232;5.196;2022-08-03T07:46:02;19.13;;;5.28;;
48268;SDS011;34088;52.232;5.196;2022-08-03T07:48:28;17.38;;;5.47;;
48268;SDS011;34088;52.232;5.196;2022-08-03T07:50:54;17.55;;;5.18;;
48268;SDS011;34088;52.232;5.196;2022-08-03T07:53:20;18.92;;;5.00;;
48268;SDS011;34088;52.232;5.196;2022-08-03T07:55:46;16.48;;;5.32;;
48268;SDS011;34088;52.232;5.196;2022-08-03T07:58:12;20.80;;;5.25;;
48268;SDS011;34088;52.232;5.196;2022-08-03T08:00:42;15.60;;;4.25;;
48268;SDS011;34088;52.232;5.196;2022-08-03T08:03:08;21.25;;;5.50;;
48268;SDS011;34088;52.232;5.196;2022-08-03T08:05:34;16.83;;;4.72;;
48268;SDS011;34088;52.232;5.196;2022-08-03T08:08:01;19.70;;;5.10;;
48268;SDS011;34088;52.232;5.196;2022-08-03T08:10:27;16.85;;;5.13;;
48268;SDS011;34088;52.232;5.196;2022-08-03T08:12:54;14.25;;;4.43;;
48268;SDS011;34088;52.232;5.196;2022-08-03T08:15:20;19.67;;;5.13;;
48268;SDS011;34088;52.232;5.196;2022-08-03T08:17:51;18.60;;;5.40;;
48268;SDS011;34088;52.232;5.196;2022-08-03T08:20:23;18.10;;;5.53;;
48268;SDS011;34088;52.232;5.196;2022-08-03T08:22:51;17.38;;;5.20;;
48268;SDS011;34088;52.232;5.196;2022-08-03T08:25:17;18.60;;;5.97;;
48268;SDS011;34088;52.232;5.196;2022-08-03T08:27:44;14.55;;;5.25;;
48268;SDS011;34088;52.232;5.196;2022-08-03T08:30:12;16.40;;;5.18;;
48268;SDS011;34088;52.232;5.196;2022-08-03T08:32:38;16.90;;;5.43;;
48268;SDS011;34088;52.232;5.196;2022-08-03T08:35:05;21.08;;;11.00;;
48268;SDS011;34088;52.232;5.196;2022-08-03T08:37:32;17.45;;;5.38;;
48268;SDS011;34088;52.232;5.196;2022-08-03T08:39:58;18.98;;;5.78;;
48268;SDS011;34088;52.232;5.196;2022-08-03T08:42:24;19.92;;;5.43;;
48268;SDS011;34088;52.232;5.196;2022-08-03T08:44:51;18.08;;;6.07;;
48268;SDS011;34088;52.232;5.196;2022-08-03T08:47:17;16.83;;;5.32;;
48268;SDS011;34088;52.232;5.196;2022-08-03T08:49:45;17.80;;;5.25;;
48268;SDS011;34088;52.232;5.196;2022-08-03T08:52:11;21.55;;;5.30;;
48268;SDS011;34088;52.232;5.196;2022-08-03T08:54:39;13.95;;;5.15;;
48268;SDS011;34088;52.232;5.196;2022-08-03T08:57:06;20.17;;;5.72;;
48268;SDS011;34088;52.232;5.196;2022-08-03T08:59:33;17.92;;;5.38;;
48268;SDS011;34088;52.232;5.196;2022-08-03T09:01:59;19.90;;;5.50;;
48268;SDS011;34088;52.232;5.196;2022-08-03T09:04:26;22.40;;;5.43;;
48268;SDS011;34088;52.232;5.196;2022-08-03T09:06:53;19.85;;;6.22;;
48268;SDS011;34088;52.232;5.196;2022-08-03T09:09:19;21.05;;;5.90;;
48268;SDS011;34088;52.232;5.196;2022-08-03T09:11:46;15.30;;;5.35;;
48268;SDS011;34088;52.232;5.196;2022-08-03T09:14:13;15.50;;;5.32;;
48268;SDS011;34088;52.232;5.196;2022-08-03T09:16:54;18.75;;;5.65;;
48268;SDS011;34088;52.232;5.196;2022-08-03T09:19:23;16.42;;;5.25;;
48268;SDS011;34088;52.232;5.196;2022-08-03T09:22:05;16.23;;;5.53;;
48268;SDS011;34088;52.232;5.196;2022-08-03T09:24:33;16.00;;;5.20;;
48268;SDS011;34088;52.232;5.196;2022-08-03T09:27:00;18.00;;;6.05;;
48268;SDS011;34088;52.232;5.196;2022-08-03T09:29:26;17.85;;;4.80;;
48268;SDS011;34088;52.232;5.196;2022-08-03T09:32:01;16.73;;;5.57;;
48268;SDS011;34088;52.232;5.196;2022-08-03T09:34:28;18.83;;;5.85;;
48268;SDS011;34088;52.232;5.196;2022-08-03T09:36:54;14.75;;;5.93;;
48268;SDS011;34088;52.232;5.196;2022-08-03T09:39:23;20.67;;;6.88;;
48268;SDS011;34088;52.232;5.196;2022-08-03T09:44:52;20.92;;;8.07;;
48268;SDS011;34088;52.232;5.196;2022-08-03T09:52:32;20.58;;;7.45;;
48268;SDS011;34088;52.232;5.196;2022-08-03T09:55:00;18.13;;;7.97;;
48268;SDS011;34088;52.232;5.196;2022-08-03T09:57:35;18.25;;;7.30;;
48268;SDS011;34088;52.232;5.196;2022-08-03T10:00:05;19.60;;;7.05;;
48268;SDS011;34088;52.232;5.196;2022-08-03T10:02:35;18.15;;;6.50;;
48268;SDS011;34088;52.232;5.196;2022-08-03T10:05:02;19.05;;;7.47;;
48268;SDS011;34088;52.232;5.196;2022-08-03T10:07:29;18.60;;;7.72;;
48268;SDS011;34088;52.232;5.196;2022-08-03T10:10:05;22.20;;;8.05;;
48268;SDS011;34088;52.232;5.196;2022-08-03T10:12:31;19.70;;;7.80;;
48268;SDS011;34088;52.232;5.196;2022-08-03T10:14:58;22.45;;;8.13;;
48268;SDS011;34088;52.232;5.196;2022-08-03T10:17:24;19.02;;;6.78;;
48268;SDS011;34088;52.232;5.196;2022-08-03T10:19:50;17.17;;;6.80;;
48268;SDS011;34088;52.232;5.196;2022-08-03T10:22:18;19.45;;;6.60;;
48268;SDS011;34088;52.232;5.196;2022-08-03T10:25:09;22.92;;;7.50;;
48268;SDS011;34088;52.232;5.196;2022-08-03T10:27:38;24.90;;;7.78;;
48268;SDS011;34088;52.232;5.196;2022-08-03T10:30:06;19.33;;;6.68;;
48268;SDS011;34088;52.232;5.196;2022-08-03T10:35:05;16.27;;;6.18;;
48268;SDS011;34088;52.232;5.196;2022-08-03T10:37:36;17.38;;;6.78;;
48268;SDS011;34088;52.232;5.196;2022-08-03T10:40:07;22.77;;;7.18;;
48268;SDS011;34088;52.232;5.196;2022-08-03T10:42:40;19.50;;;6.60;;
48268;SDS011;34088;52.232;5.196;2022-08-03T10:45:14;18.75;;;6.95;;
48268;SDS011;34088;52.232;5.196;2022-08-03T10:47:44;18.60;;;6.20;;
48268;SDS011;34088;52.232;5.196;2022-08-03T10:50:11;17.90;;;5.70;;
48268;SDS011;34088;52.232;5.196;2022-08-03T10:53:20;11.45;;;5.55;;
48268;SDS011;34088;52.232;5.196;2022-08-03T10:55:35;17.17;;;5.10;;
48268;SDS011;34088;52.232;5.196;2022-08-03T10:58:45;15.75;;;5.65;;
48268;SDS011;34088;52.232;5.196;2022-08-03T11:01:17;13.60;;;5.57;;
48268;SDS011;34088;52.232;5.196;2022-08-03T11:06:25;12.75;;;4.50;;
48268;SDS011;34088;52.232;5.196;2022-08-03T11:11:38;16.08;;;5.30;;
48268;SDS011;34088;52.232;5.196;2022-08-03T11:16:34;16.27;;;4.80;;
48268;SDS011;34088;52.232;5.196;2022-08-03T11:19:05;17.33;;;5.53;;
48268;SDS011;34088;52.232;5.196;2022-08-03T11:29:56;14.95;;;5.55;;
48268;SDS011;34088;52.232;5.196;2022-08-03T11:37:36;14.07;;;5.45;;
48268;SDS011;34088;52.232;5.196;2022-08-03T11:43:49;16.83;;;5.07;;
48268;SDS011;34088;52.232;5.196;2022-08-03T11:46:02;14.48;;;6.15;;
48268;SDS011;34088;52.232;5.196;2022-08-03T11:50:58;13.40;;;5.15;;
48268;SDS011;34088;52.232;5.196;2022-08-03T11:53:25;15.57;;;5.32;;
48268;SDS011;34088;52.232;5.196;2022-08-03T11:55:52;13.55;;;4.53;;
48268;SDS011;34088;52.232;5.196;2022-08-03T11:58:18;18.17;;;4.78;;
48268;SDS011;34088;52.232;5.196;2022-08-03T12:00:46;11.43;;;4.72;;
48268;SDS011;34088;52.232;5.196;2022-08-03T12:03:14;8.98;;;4.13;;
48268;SDS011;34088;52.232;5.196;2022-08-03T12:05:46;10.55;;;4.60;;
48268;SDS011;34088;52.232;5.196;2022-08-03T12:08:16;15.30;;;4.78;;
48268;SDS011;34088;52.232;5.196;2022-08-03T12:10:52;15.13;;;5.22;;
48268;SDS011;34088;52.232;5.196;2022-08-03T12:13:20;14.13;;;4.85;;
48268;SDS011;34088;52.232;5.196;2022-08-03T12:15:54;9.60;;;4.43;;
48268;SDS011;34088;52.232;5.196;2022-08-03T12:18:23;12.18;;;4.05;;
48268;SDS011;34088;52.232;5.196;2022-08-03T12:20:50;12.10;;;5.03;;
48268;SDS011;34088;52.232;5.196;2022-08-03T12:23:17;13.80;;;5.40;;
48268;SDS011;34088;52.232;5.196;2022-08-03T12:25:44;10.75;;;4.90;;
48268;SDS011;34088;52.232;5.196;2022-08-03T12:28:13;9.23;;;4.15;;
48268;SDS011;34088;52.232;5.196;2022-08-03T12:30:47;10.13;;;4.18;;
48268;SDS011;34088;52.232;5.196;2022-08-03T12:33:19;10.27;;;3.83;;
48268;SDS011;34088;52.232;5.196;2022-08-03T12:35:48;10.38;;;3.60;;
48268;SDS011;34088;52.232;5.196;2022-08-03T12:38:30;11.75;;;3.70;;
48268;SDS011;34088;52.232;5.196;2022-08-03T12:41:01;10.05;;;4.18;;
48268;SDS011;34088;52.232;5.196;2022-08-03T12:43:32;10.25;;;4.40;;
48268;SDS011;34088;52.232;5.196;2022-08-03T12:46:05;10.38;;;4.38;;
48268;SDS011;34088;52.232;5.196;2022-08-03T12:48:32;11.27;;;4.32;;
48268;SDS011;34088;52.232;5.196;2022-08-03T12:51:09;11.80;;;4.00;;
48268;SDS011;34088;52.232;5.196;2022-08-03T12:53:35;8.73;;;3.90;;
48268;SDS011;34088;52.232;5.196;2022-08-03T12:56:02;10.48;;;3.78;;
48268;SDS011;34088;52.232;5.196;2022-08-03T12:58:35;9.80;;;3.65;;
48268;SDS011;34088;52.232;5.196;2022-08-03T13:01:03;10.18;;;3.90;;
48268;SDS011;34088;52.232;5.196;2022-08-03T13:03:37;11.52;;;4.53;;
48268;SDS011;34088;52.232;5.196;2022-08-03T13:06:11;13.48;;;4.65;;
48268;SDS011;34088;52.232;5.196;2022-08-03T13:08:41;9.98;;;3.70;;
48268;SDS011;34088;52.232;5.196;2022-08-03T13:11:23;10.35;;;3.83;;
48268;SDS011;34088;52.232;5.196;2022-08-03T13:13:51;9.27;;;3.70;;
48268;SDS011;34088;52.232;5.196;2022-08-03T13:16:18;9.40;;;4.15;;
48268;SDS011;34088;52.232;5.196;2022-08-03T13:18:48;11.25;;;5.05;;
48268;SDS011;34088;52.232;5.196;2022-08-03T13:21:16;10.68;;;3.72;;
48268;SDS011;34088;52.232;5.196;2022-08-03T13:23:43;10.57;;;4.05;;
48268;SDS011;34088;52.232;5.196;2022-08-03T13:26:09;9.00;;;3.90;;
48268;SDS011;34088;52.232;5.196;2022-08-03T13:28:36;9.50;;;3.53;;
48268;SDS011;34088;52.232;5.196;2022-08-03T13:31:03;11.65;;;3.28;;
48268;SDS011;34088;52.232;5.196;2022-08-03T13:33:29;9.25;;;2.88;;
48268;SDS011;34088;52.232;5.196;2022-08-03T13:35:55;8.63;;;3.08;;
48268;SDS011;34088;52.232;5.196;2022-08-03T13:38:22;7.47;;;3.17;;
48268;SDS011;34088;52.232;5.196;2022-08-03T13:40:48;10.82;;;3.00;;
48268;SDS011;34088;52.232;5.196;2022-08-03T13:43:19;8.55;;;3.22;;
48268;SDS011;34088;52.232;5.196;2022-08-03T13:45:46;9.38;;;2.80;;
48268;SDS011;34088;52.232;5.196;2022-08-03T13:48:12;11.90;;;3.33;;
48268;SDS011;34088;52.232;5.196;2022-08-03T13:50:38;7.38;;;2.55;;
48268;SDS011;34088;52.232;5.196;2022-08-03T13:53:04;7.95;;;2.85;;
48268;SDS011;34088;52.232;5.196;2022-08-03T13:55:30;8.25;;;2.80;;
48268;SDS011;34088;52.232;5.196;2022-08-03T13:57:57;6.10;;;2.50;;
48268;SDS011;34088;52.232;5.196;2022-08-03T14:00:23;9.30;;;2.75;;
48268;SDS011;34088;52.232;5.196;2022-08-03T14:02:50;8.10;;;2.30;;
48268;SDS011;34088;52.232;5.196;2022-08-03T14:05:16;6.45;;;2.38;;
48268;SDS011;34088;52.232;5.196;2022-08-03T14:07:42;7.93;;;2.00;;
48268;SDS011;34088;52.232;5.196;2022-08-03T14:10:08;8.95;;;2.20;;
48268;SDS011;34088;52.232;5.196;2022-08-03T14:12:34;6.55;;;2.30;;
48268;SDS011;34088;52.232;5.196;2022-08-03T14:15:00;10.82;;;2.20;;
48268;SDS011;34088;52.232;5.196;2022-08-03T14:17:27;6.60;;;1.92;;
48268;SDS011;34088;52.232;5.196;2022-08-03T14:19:53;5.93;;;1.63;;
48268;SDS011;34088;52.232;5.196;2022-08-03T14:22:19;8.82;;;2.10;;
48268;SDS011;34088;52.232;5.196;2022-08-03T14:24:45;10.07;;;2.13;;
48268;SDS011;34088;52.232;5.196;2022-08-03T14:27:11;6.13;;;2.00;;
48268;SDS011;34088;52.232;5.196;2022-08-03T14:29:37;5.97;;;1.60;;
48268;SDS011;34088;52.232;5.196;2022-08-03T14:32:03;9.05;;;2.05;;
48268;SDS011;34088;52.232;5.196;2022-08-03T14:34:29;9.27;;;1.85;;
48268;SDS011;34088;52.232;5.196;2022-08-03T14:36:56;6.15;;;2.10;;
48268;SDS011;34088;52.232;5.196;2022-08-03T14:39:22;7.97;;;2.13;;
48268;SDS011;34088;52.232;5.196;2022-08-03T14:41:48;8.15;;;2.05;;
48268;SDS011;34088;52.232;5.196;2022-08-03T14:44:14;9.82;;;2.20;;
48268;SDS011;34088;52.232;5.196;2022-08-03T14:46:40;12.57;;;2.20;;
48268;SDS011;34088;52.232;5.196;2022-08-03T14:49:06;6.82;;;1.95;;
48268;SDS011;34088;52.232;5.196;2022-08-03T14:51:32;6.85;;;2.00;;
48268;SDS011;34088;52.232;5.196;2022-08-03T14:53:58;7.45;;;2.00;;
48268;SDS011;34088;52.232;5.196;2022-08-03T14:56:24;6.35;;;1.63;;
48268;SDS011;34088;52.232;5.196;2022-08-03T14:58:50;7.65;;;2.10;;
48268;SDS011;34088;52.232;5.196;2022-08-03T15:01:16;7.15;;;2.05;;
48268;SDS011;34088;52.232;5.196;2022-08-03T15:03:42;9.13;;;2.10;;
48268;SDS011;34088;52.232;5.196;2022-08-03T15:06:10;11.10;;;2.13;;
48268;SDS011;34088;52.232;5.196;2022-08-03T15:08:36;7.75;;;2.08;;
48268;SDS011;34088;52.232;5.196;2022-08-03T15:11:02;5.50;;;1.83;;
48268;SDS011;34088;52.232;5.196;2022-08-03T15:13:28;6.35;;;1.63;;
48268;SDS011;34088;52.232;5.196;2022-08-03T15:15:54;7.32;;;1.92;;
48268;SDS011;34088;52.232;5.196;2022-08-03T15:18:21;6.63;;;1.65;;
48268;SDS011;34088;52.232;5.196;2022-08-03T15:20:48;6.18;;;1.60;;
48268;SDS011;34088;52.232;5.196;2022-08-03T15:23:15;4.22;;;1.40;;
48268;SDS011;34088;52.232;5.196;2022-08-03T15:25:42;6.18;;;1.73;;
48268;SDS011;34088;52.232;5.196;2022-08-03T15:28:09;7.50;;;1.77;;
48268;SDS011;34088;52.232;5.196;2022-08-03T15:30:35;4.30;;;1.67;;
48268;SDS011;34088;52.232;5.196;2022-08-03T15:33:04;5.60;;;1.60;;
48268;SDS011;34088;52.232;5.196;2022-08-03T15:35:30;7.93;;;1.90;;
48268;SDS011;34088;52.232;5.196;2022-08-03T15:37:59;4.97;;;1.52;;
48268;SDS011;34088;52.232;5.196;2022-08-03T15:40:25;4.78;;;1.40;;
48268;SDS011;34088;52.232;5.196;2022-08-03T15:42:51;5.97;;;1.63;;
48268;SDS011;34088;52.232;5.196;2022-08-03T15:45:17;5.55;;;1.40;;